sensor_id;sensor_type;location;lat;lon;timestamp;temperature;humidity
11188;DHT22;5650;52.700;7.306;2023-07-30T00:02:13;16.40;99.90
11188;DHT22;5650;52.700;7.306;2023-07-30T00:04:46;16.40;99.90
11188;DHT22;5650;52.700;7.306;2023-07-30T00:07:15;16.30;99.90
11188;DHT22;5650;52.700;7.306;2023-07-30T00:09:43;16.30;99.90
11188;DHT22;5650;52.700;7.306;2023-07-30T00:12:12;16.30;99.90
11188;DHT22;5650;52.700;7.306;2023-07-30T00:14:42;16.20;99.90
11188;DHT22;5650;52.700;7.306;2023-07-30T00:17:17;16.20;99.90
11188;DHT22;5650;52.700;7.306;2023-07-30T00:19:44;16.30;99.90
11188;DHT22;5650;52.700;7.306;2023-07-30T00:22:11;16.20;99.90
11188;DHT22;5650;52.700;7.306;2023-07-30T00:24:38;16.20;99.90
11188;DHT22;5650;52.700;7.306;2023-07-30T00:27:06;16.20;99.90
11188;DHT22;5650;52.700;7.306;2023-07-30T00:29:36;16.20;99.90
11188;DHT22;5650;52.700;7.306;2023-07-30T00:32:12;16.20;99.90
11188;DHT22;5650;52.700;7.306;2023-07-30T00:34:45;16.10;99.90
11188;DHT22;5650;52.700;7.306;2023-07-30T00:37:15;16.10;99.90
11188;DHT22;5650;52.700;7.306;2023-07-30T00:39:44;16.10;99.90
11188;DHT22;5650;52.700;7.306;2023-07-30T00:42:12;16.10;99.90
11188;DHT22;5650;52.700;7.306;2023-07-30T00:44:45;16.10;99.90
11188;DHT22;5650;52.700;7.306;2023-07-30T00:47:18;16.00;99.90
11188;DHT22;5650;52.700;7.306;2023-07-30T00:49:46;16.00;99.90
11188;DHT22;5650;52.700;7.306;2023-07-30T00:52:15;16.00;99.90
11188;DHT22;5650;52.700;7.306;2023-07-30T00:54:42;16.00;99.90
11188;DHT22;5650;52.700;7.306;2023-07-30T00:57:12;16.00;99.90
11188;DHT22;5650;52.700;7.306;2023-07-30T00:59:40;15.90;99.90
11188;DHT22;5650;52.700;7.306;2023-07-30T01:02:09;15.90;99.90
11188;DHT22;5650;52.700;7.306;2023-07-30T01:04:37;15.90;99.90
11188;DHT22;5650;52.700;7.306;2023-07-30T01:07:09;15.90;99.90
11188;DHT22;5650;52.700;7.306;2023-07-30T01:09:37;15.90;99.90
11188;DHT22;5650;52.700;7.306;2023-07-30T01:12:05;15.80;99.90
11188;DHT22;5650;52.700;7.306;2023-07-30T01:14:35;15.80;99.90
11188;DHT22;5650;52.700;7.306;2023-07-30T01:17:05;15.80;99.90
11188;DHT22;5650;52.700;7.306;2023-07-30T01:19:34;15.70;99.90
11188;DHT22;5650;52.700;7.306;2023-07-30T01:22:06;15.70;99.90
11188;DHT22;5650;52.700;7.306;2023-07-30T01:24:33;15.70;99.90
11188;DHT22;5650;52.700;7.306;2023-07-30T01:27:05;15.70;99.90
11188;DHT22;5650;52.700;7.306;2023-07-30T01:29:40;15.60;99.90
11188;DHT22;5650;52.700;7.306;2023-07-30T01:32:12;15.60;99.90
11188;DHT22;5650;52.700;7.306;2023-07-30T01:34:41;15.60;99.90
11188;DHT22;5650;52.700;7.306;2023-07-30T01:37:12;15.60;99.90
11188;DHT22;5650;52.700;7.306;2023-07-30T01:39:48;15.50;99.90
11188;DHT22;5650;52.700;7.306;2023-07-30T01:42:15;15.60;99.90
11188;DHT22;5650;52.700;7.306;2023-07-30T01:44:45;15.50;99.90
11188;DHT22;5650;52.700;7.306;2023-07-30T01:47:15;15.50;99.90
11188;DHT22;5650;52.700;7.306;2023-07-30T01:49:48;15.50;99.90
11188;DHT22;5650;52.700;7.306;2023-07-30T01:52:19;15.50;99.90
11188;DHT22;5650;52.700;7.306;2023-07-30T01:54:46;15.50;99.90
11188;DHT22;5650;52.700;7.306;2023-07-30T01:57:16;15.50;99.90
11188;DHT22;5650;52.700;7.306;2023-07-30T01:59:43;15.50;99.90
11188;DHT22;5650;52.700;7.306;2023-07-30T02:02:10;15.40;99.90
11188;DHT22;5650;52.700;7.306;2023-07-30T02:04:40;15.40;99.90
11188;DHT22;5650;52.700;7.306;2023-07-30T02:07:07;15.40;99.90
11188;DHT22;5650;52.700;7.306;2023-07-30T02:09:41;15.30;99.90
11188;DHT22;5650;52.700;7.306;2023-07-30T02:12:14;15.30;99.90
11188;DHT22;5650;52.700;7.306;2023-07-30T02:14:41;15.30;99.90
11188;DHT22;5650;52.700;7.306;2023-07-30T02:17:08;15.30;99.90
11188;DHT22;5650;52.700;7.306;2023-07-30T02:19:44;15.30;99.90
11188;DHT22;5650;52.700;7.306;2023-07-30T02:22:11;15.30;99.90
11188;DHT22;5650;52.700;7.306;2023-07-30T02:24:39;15.20;99.90
11188;DHT22;5650;52.700;7.306;2023-07-30T02:27:06;15.20;99.90
11188;DHT22;5650;52.700;7.306;2023-07-30T02:29:33;15.20;99.90
11188;DHT22;5650;52.700;7.306;2023-07-30T02:32:00;15.20;99.90
11188;DHT22;5650;52.700;7.306;2023-07-30T02:34:33;15.20;99.90
11188;DHT22;5650;52.700;7.306;2023-07-30T02:37:06;15.20;99.90
11188;DHT22;5650;52.700;7.306;2023-07-30T02:39:33;15.20;99.90
11188;DHT22;5650;52.700;7.306;2023-07-30T02:42:02;15.20;99.90
11188;DHT22;5650;52.700;7.306;2023-07-30T02:44:32;15.10;99.90
11188;DHT22;5650;52.700;7.306;2023-07-30T02:46:59;15.10;99.90
11188;DHT22;5650;52.700;7.306;2023-07-30T02:49:26;15.10;99.90
11188;DHT22;5650;52.700;7.306;2023-07-30T02:51:56;15.10;99.90
11188;DHT22;5650;52.700;7.306;2023-07-30T02:54:35;15.10;99.90
11188;DHT22;5650;52.700;7.306;2023-07-30T02:57:09;15.10;99.90
11188;DHT22;5650;52.700;7.306;2023-07-30T02:59:47;15.10;99.90
11188;DHT22;5650;52.700;7.306;2023-07-30T03:02:17;15.00;99.90
11188;DHT22;5650;52.700;7.306;2023-07-30T03:04:45;15.00;99.90
11188;DHT22;5650;52.700;7.306;2023-07-30T03:07:18;15.00;99.90
11188;DHT22;5650;52.700;7.306;2023-07-30T03:09:45;15.00;99.90
11188;DHT22;5650;52.700;7.306;2023-07-30T03:12:14;15.00;99.90
11188;DHT22;5650;52.700;7.306;2023-07-30T03:14:41;15.00;99.90
11188;DHT22;5650;52.700;7.306;2023-07-30T03:17:08;15.00;99.90
11188;DHT22;5650;52.700;7.306;2023-07-30T03:19:35;15.00;99.90
11188;DHT22;5650;52.700;7.306;2023-07-30T03:22:09;15.00;99.90
11188;DHT22;5650;52.700;7.306;2023-07-30T03:24:36;15.00;99.90
11188;DHT22;5650;52.700;7.306;2023-07-30T03:27:03;15.00;99.90
11188;DHT22;5650;52.700;7.306;2023-07-30T03:29:32;15.00;99.90
11188;DHT22;5650;52.700;7.306;2023-07-30T03:31:59;15.00;99.90
11188;DHT22;5650;52.700;7.306;2023-07-30T03:34:26;15.00;99.90
11188;DHT22;5650;52.700;7.306;2023-07-30T03:36:56;15.00;99.90
11188;DHT22;5650;52.700;7.306;2023-07-30T03:39:29;15.00;99.90
11188;DHT22;5650;52.700;7.306;2023-07-30T03:41:57;15.00;99.90
11188;DHT22;5650;52.700;7.306;2023-07-30T03:44:24;14.90;99.90
11188;DHT22;5650;52.700;7.306;2023-07-30T03:46:52;15.00;99.90
11188;DHT22;5650;52.700;7.306;2023-07-30T03:49:19;15.00;99.90
11188;DHT22;5650;52.700;7.306;2023-07-30T03:51:48;15.00;99.90
11188;DHT22;5650;52.700;7.306;2023-07-30T03:54:15;15.00;99.90
11188;DHT22;5650;52.700;7.306;2023-07-30T03:56:42;15.00;99.90
11188;DHT22;5650;52.700;7.306;2023-07-30T03:59:09;14.90;99.90
11188;DHT22;5650;52.700;7.306;2023-07-30T04:01:36;15.00;99.90
11188;DHT22;5650;52.700;7.306;2023-07-30T04:04:05;15.00;99.90
11188;DHT22;5650;52.700;7.306;2023-07-30T04:06:38;15.00;99.90
11188;DHT22;5650;52.700;7.306;2023-07-30T04:09:11;15.00;99.90
11188;DHT22;5650;52.700;7.306;2023-07-30T04:11:38;15.00;99.90
11188;DHT22;5650;52.700;7.306;2023-07-30T04:14:05;15.00;99.90
11188;DHT22;5650;52.700;7.306;2023-07-30T04:16:42;15.00;99.90
11188;DHT22;5650;52.700;7.306;2023-07-30T04:19:16;15.00;99.90
11188;DHT22;5650;52.700;7.306;2023-07-30T04:21:43;15.10;99.90
11188;DHT22;5650;52.700;7.306;2023-07-30T04:24:13;15.10;99.90
11188;DHT22;5650;52.700;7.306;2023-07-30T04:26:43;15.10;99.90
11188;DHT22;5650;52.700;7.306;2023-07-30T04:29:10;15.10;99.90
11188;DHT22;5650;52.700;7.306;2023-07-30T04:31:39;15.20;99.90
11188;DHT22;5650;52.700;7.306;2023-07-30T04:34:09;15.10;99.90
11188;DHT22;5650;52.700;7.306;2023-07-30T04:36:44;15.10;99.90
11188;DHT22;5650;52.700;7.306;2023-07-30T04:39:14;15.20;99.90
11188;DHT22;5650;52.700;7.306;2023-07-30T04:41:44;15.30;99.90
11188;DHT22;5650;52.700;7.306;2023-07-30T04:44:11;15.40;99.90
11188;DHT22;5650;52.700;7.306;2023-07-30T04:46:44;15.40;99.90
11188;DHT22;5650;52.700;7.306;2023-07-30T04:49:11;15.50;99.90
11188;DHT22;5650;52.700;7.306;2023-07-30T04:51:41;15.60;99.90
11188;DHT22;5650;52.700;7.306;2023-07-30T04:54:10;15.70;99.90
11188;DHT22;5650;52.700;7.306;2023-07-30T04:56:40;15.80;99.90
11188;DHT22;5650;52.700;7.306;2023-07-30T04:59:07;15.90;99.90
11188;DHT22;5650;52.700;7.306;2023-07-30T05:01:35;16.00;99.90
11188;DHT22;5650;52.700;7.306;2023-07-30T05:04:02;16.10;99.90
11188;DHT22;5650;52.700;7.306;2023-07-30T05:06:29;16.20;99.90
11188;DHT22;5650;52.700;7.306;2023-07-30T05:08:59;16.20;99.90
11188;DHT22;5650;52.700;7.306;2023-07-30T05:11:28;16.20;99.90
11188;DHT22;5650;52.700;7.306;2023-07-30T05:13:58;16.30;99.90
11188;DHT22;5650;52.700;7.306;2023-07-30T05:16:28;16.30;99.90
11188;DHT22;5650;52.700;7.306;2023-07-30T05:18:55;16.40;99.90
11188;DHT22;5650;52.700;7.306;2023-07-30T05:21:22;16.40;99.90
11188;DHT22;5650;52.700;7.306;2023-07-30T05:23:50;16.50;99.90
11188;DHT22;5650;52.700;7.306;2023-07-30T05:29:31;16.70;99.90
11188;DHT22;5650;52.700;7.306;2023-07-30T05:31:59;16.80;99.90
11188;DHT22;5650;52.700;7.306;2023-07-30T05:34:28;16.90;99.90
11188;DHT22;5650;52.700;7.306;2023-07-30T05:36:56;17.10;99.90
11188;DHT22;5650;52.700;7.306;2023-07-30T05:39:26;17.30;99.90
11188;DHT22;5650;52.700;7.306;2023-07-30T05:41:53;17.60;99.90
11188;DHT22;5650;52.700;7.306;2023-07-30T05:44:20;18.10;99.90
11188;DHT22;5650;52.700;7.306;2023-07-30T05:46:52;18.50;99.90
11188;DHT22;5650;52.700;7.306;2023-07-30T05:49:22;18.70;99.90
11188;DHT22;5650;52.700;7.306;2023-07-30T05:51:49;18.70;99.90
11188;DHT22;5650;52.700;7.306;2023-07-30T05:54:23;18.50;99.90
11188;DHT22;5650;52.700;7.306;2023-07-30T05:56:50;18.40;99.90
11188;DHT22;5650;52.700;7.306;2023-07-30T05:59:19;18.20;99.90
11188;DHT22;5650;52.700;7.306;2023-07-30T06:01:46;18.00;99.90
11188;DHT22;5650;52.700;7.306;2023-07-30T06:04:15;17.90;99.90
11188;DHT22;5650;52.700;7.306;2023-07-30T06:06:54;17.80;99.90
11188;DHT22;5650;52.700;7.306;2023-07-30T06:09:24;17.70;99.90
11188;DHT22;5650;52.700;7.306;2023-07-30T06:11:51;17.70;99.90
11188;DHT22;5650;52.700;7.306;2023-07-30T06:14:37;17.70;99.90
11188;DHT22;5650;52.700;7.306;2023-07-30T06:17:04;17.70;99.90
11188;DHT22;5650;52.700;7.306;2023-07-30T06:19:33;17.80;99.90
11188;DHT22;5650;52.700;7.306;2023-07-30T06:22:03;17.90;99.90
11188;DHT22;5650;52.700;7.306;2023-07-30T06:24:31;18.20;99.90
11188;DHT22;5650;52.700;7.306;2023-07-30T06:27:05;18.30;99.90
11188;DHT22;5650;52.700;7.306;2023-07-30T06:29:32;18.30;99.90
11188;DHT22;5650;52.700;7.306;2023-07-30T06:31:59;18.20;99.90
11188;DHT22;5650;52.700;7.306;2023-07-30T06:34:27;18.10;99.90
11188;DHT22;5650;52.700;7.306;2023-07-30T06:36:58;18.10;99.90
11188;DHT22;5650;52.700;7.306;2023-07-30T06:39:26;18.10;99.90
11188;DHT22;5650;52.700;7.306;2023-07-30T06:41:53;18.20;99.90
11188;DHT22;5650;52.700;7.306;2023-07-30T06:44:23;18.40;99.90
11188;DHT22;5650;52.700;7.306;2023-07-30T06:47:03;18.50;99.90
11188;DHT22;5650;52.700;7.306;2023-07-30T06:49:36;18.50;99.90
11188;DHT22;5650;52.700;7.306;2023-07-30T06:52:19;18.60;99.90
11188;DHT22;5650;52.700;7.306;2023-07-30T06:54:47;18.80;99.90
11188;DHT22;5650;52.700;7.306;2023-07-30T06:57:14;19.10;99.90
11188;DHT22;5650;52.700;7.306;2023-07-30T06:59:44;19.40;99.90
11188;DHT22;5650;52.700;7.306;2023-07-30T07:02:11;19.60;99.90
11188;DHT22;5650;52.700;7.306;2023-07-30T07:04:38;19.70;99.90
11188;DHT22;5650;52.700;7.306;2023-07-30T07:07:06;20.00;99.90
11188;DHT22;5650;52.700;7.306;2023-07-30T07:09:34;20.30;99.90
11188;DHT22;5650;52.700;7.306;2023-07-30T07:12:01;20.50;99.90
11188;DHT22;5650;52.700;7.306;2023-07-30T07:14:29;20.70;99.90
11188;DHT22;5650;52.700;7.306;2023-07-30T07:16:56;20.80;99.90
11188;DHT22;5650;52.700;7.306;2023-07-30T07:19:24;21.10;99.90
11188;DHT22;5650;52.700;7.306;2023-07-30T07:21:52;21.10;99.90
11188;DHT22;5650;52.700;7.306;2023-07-30T07:24:19;21.20;99.90
11188;DHT22;5650;52.700;7.306;2023-07-30T07:26:47;21.40;99.90
11188;DHT22;5650;52.700;7.306;2023-07-30T07:29:15;21.60;99.90
11188;DHT22;5650;52.700;7.306;2023-07-30T07:31:42;21.80;99.90
11188;DHT22;5650;52.700;7.306;2023-07-30T07:34:09;21.90;99.90
11188;DHT22;5650;52.700;7.306;2023-07-30T07:36:37;21.80;99.90
11188;DHT22;5650;52.700;7.306;2023-07-30T07:39:04;21.50;99.90
11188;DHT22;5650;52.700;7.306;2023-07-30T07:41:32;21.20;99.90
11188;DHT22;5650;52.700;7.306;2023-07-30T07:44:00;21.10;99.90
11188;DHT22;5650;52.700;7.306;2023-07-30T07:46:28;21.20;99.90
11188;DHT22;5650;52.700;7.306;2023-07-30T07:48:55;21.10;99.90
11188;DHT22;5650;52.700;7.306;2023-07-30T07:51:23;21.20;99.90
11188;DHT22;5650;52.700;7.306;2023-07-30T07:53:50;21.20;99.90
11188;DHT22;5650;52.700;7.306;2023-07-30T07:56:18;21.10;99.90
11188;DHT22;5650;52.700;7.306;2023-07-30T07:58:45;21.00;99.90
11188;DHT22;5650;52.700;7.306;2023-07-30T08:01:14;20.80;99.90
11188;DHT22;5650;52.700;7.306;2023-07-30T08:03:41;20.60;99.90
11188;DHT22;5650;52.700;7.306;2023-07-30T08:06:08;20.40;99.90
11188;DHT22;5650;52.700;7.306;2023-07-30T08:08:35;20.20;99.90
11188;DHT22;5650;52.700;7.306;2023-07-30T08:11:05;20.10;99.90
11188;DHT22;5650;52.700;7.306;2023-07-30T08:13:33;20.00;99.90
11188;DHT22;5650;52.700;7.306;2023-07-30T08:16:00;19.90;99.90
11188;DHT22;5650;52.700;7.306;2023-07-30T08:18:29;19.90;99.90
11188;DHT22;5650;52.700;7.306;2023-07-30T08:20:56;19.90;99.90
11188;DHT22;5650;52.700;7.306;2023-07-30T08:23:26;19.90;99.90
11188;DHT22;5650;52.700;7.306;2023-07-30T08:25:53;19.90;99.90
11188;DHT22;5650;52.700;7.306;2023-07-30T08:28:29;19.90;99.90
11188;DHT22;5650;52.700;7.306;2023-07-30T08:31:00;20.00;99.90
11188;DHT22;5650;52.700;7.306;2023-07-30T08:33:32;20.10;99.90
11188;DHT22;5650;52.700;7.306;2023-07-30T08:36:05;20.20;99.90
11188;DHT22;5650;52.700;7.306;2023-07-30T08:38:32;20.50;99.90
11188;DHT22;5650;52.700;7.306;2023-07-30T08:40:59;20.70;99.90
11188;DHT22;5650;52.700;7.306;2023-07-30T08:43:30;20.90;99.90
11188;DHT22;5650;52.700;7.306;2023-07-30T08:45:57;21.20;99.90
11188;DHT22;5650;52.700;7.306;2023-07-30T08:48:29;21.50;99.90
11188;DHT22;5650;52.700;7.306;2023-07-30T08:51:00;21.70;99.90
11188;DHT22;5650;52.700;7.306;2023-07-30T08:53:33;22.00;99.90
11188;DHT22;5650;52.700;7.306;2023-07-30T08:56:01;22.40;99.90
11188;DHT22;5650;52.700;7.306;2023-07-30T08:58:33;22.70;99.90
11188;DHT22;5650;52.700;7.306;2023-07-30T09:01:13;22.90;99.90
11188;DHT22;5650;52.700;7.306;2023-07-30T09:03:41;23.00;99.90
11188;DHT22;5650;52.700;7.306;2023-07-30T09:06:16;23.00;99.90
11188;DHT22;5650;52.700;7.306;2023-07-30T09:08:46;23.20;99.90
11188;DHT22;5650;52.700;7.306;2023-07-30T09:11:16;23.20;99.90
11188;DHT22;5650;52.700;7.306;2023-07-30T09:13:45;23.20;99.90
11188;DHT22;5650;52.700;7.306;2023-07-30T09:16:14;23.10;99.90
11188;DHT22;5650;52.700;7.306;2023-07-30T09:18:53;23.00;99.90
11188;DHT22;5650;52.700;7.306;2023-07-30T09:21:31;23.00;99.90
11188;DHT22;5650;52.700;7.306;2023-07-30T09:24:02;23.10;99.90
11188;DHT22;5650;52.700;7.306;2023-07-30T09:26:41;23.10;99.90
11188;DHT22;5650;52.700;7.306;2023-07-30T09:29:12;23.10;99.90
11188;DHT22;5650;52.700;7.306;2023-07-30T09:31:46;23.10;99.90
11188;DHT22;5650;52.700;7.306;2023-07-30T09:34:17;23.00;99.90
11188;DHT22;5650;52.700;7.306;2023-07-30T09:36:50;23.00;99.90
11188;DHT22;5650;52.700;7.306;2023-07-30T09:39:20;23.00;99.90
11188;DHT22;5650;52.700;7.306;2023-07-30T09:41:51;23.00;99.90
11188;DHT22;5650;52.700;7.306;2023-07-30T09:44:24;22.90;99.90
11188;DHT22;5650;52.700;7.306;2023-07-30T09:46:51;22.80;99.90
11188;DHT22;5650;52.700;7.306;2023-07-30T09:49:25;22.70;99.90
11188;DHT22;5650;52.700;7.306;2023-07-30T09:51:53;22.50;99.90
11188;DHT22;5650;52.700;7.306;2023-07-30T09:54:21;22.30;99.90
11188;DHT22;5650;52.700;7.306;2023-07-30T09:56:48;22.10;99.90
11188;DHT22;5650;52.700;7.306;2023-07-30T09:59:15;22.00;99.90
11188;DHT22;5650;52.700;7.306;2023-07-30T10:01:50;21.80;99.90
11188;DHT22;5650;52.700;7.306;2023-07-30T10:04:28;21.60;99.90
11188;DHT22;5650;52.700;7.306;2023-07-30T10:07:10;21.50;99.90
11188;DHT22;5650;52.700;7.306;2023-07-30T10:09:45;21.40;99.90
11188;DHT22;5650;52.700;7.306;2023-07-30T10:12:17;21.30;99.90
11188;DHT22;5650;52.700;7.306;2023-07-30T10:14:52;21.30;99.90
11188;DHT22;5650;52.700;7.306;2023-07-30T10:17:19;21.30;99.90
11188;DHT22;5650;52.700;7.306;2023-07-30T10:19:50;21.30;99.90
11188;DHT22;5650;52.700;7.306;2023-07-30T10:22:22;21.20;99.90
11188;DHT22;5650;52.700;7.306;2023-07-30T10:24:58;21.20;99.90
11188;DHT22;5650;52.700;7.306;2023-07-30T10:27:36;21.30;99.90
11188;DHT22;5650;52.700;7.306;2023-07-30T10:30:13;21.40;99.90
11188;DHT22;5650;52.700;7.306;2023-07-30T10:33:03;21.30;99.90
11188;DHT22;5650;52.700;7.306;2023-07-30T10:35:41;21.20;99.90
11188;DHT22;5650;52.700;7.306;2023-07-30T10:38:17;21.10;99.90
11188;DHT22;5650;52.700;7.306;2023-07-30T10:41:04;21.00;99.90
11188;DHT22;5650;52.700;7.306;2023-07-30T10:43:34;20.70;99.90
11188;DHT22;5650;52.700;7.306;2023-07-30T10:46:10;20.60;99.90
11188;DHT22;5650;52.700;7.306;2023-07-30T10:48:45;20.40;99.90
11188;DHT22;5650;52.700;7.306;2023-07-30T10:51:14;20.20;99.90
11188;DHT22;5650;52.700;7.306;2023-07-30T10:53:43;20.20;99.90
11188;DHT22;5650;52.700;7.306;2023-07-30T10:56:16;20.10;99.90
11188;DHT22;5650;52.700;7.306;2023-07-30T10:58:50;20.30;99.90
11188;DHT22;5650;52.700;7.306;2023-07-30T11:01:18;20.40;99.90
11188;DHT22;5650;52.700;7.306;2023-07-30T11:03:48;20.50;99.90
11188;DHT22;5650;52.700;7.306;2023-07-30T11:06:21;20.60;99.90
11188;DHT22;5650;52.700;7.306;2023-07-30T11:08:50;20.60;99.90
11188;DHT22;5650;52.700;7.306;2023-07-30T11:11:17;20.70;99.90
11188;DHT22;5650;52.700;7.306;2023-07-30T11:13:48;20.70;99.90
11188;DHT22;5650;52.700;7.306;2023-07-30T11:16:21;20.80;99.90
11188;DHT22;5650;52.700;7.306;2023-07-30T11:18:48;21.00;99.90
11188;DHT22;5650;52.700;7.306;2023-07-30T11:21:31;21.20;99.90
11188;DHT22;5650;52.700;7.306;2023-07-30T11:24:10;21.40;99.90
11188;DHT22;5650;52.700;7.306;2023-07-30T11:26:40;21.50;99.90
11188;DHT22;5650;52.700;7.306;2023-07-30T11:29:22;21.50;99.90
11188;DHT22;5650;52.700;7.306;2023-07-30T11:32:04;21.40;99.90
11188;DHT22;5650;52.700;7.306;2023-07-30T11:34:31;21.40;99.90
11188;DHT22;5650;52.700;7.306;2023-07-30T11:37:05;21.30;99.90
11188;DHT22;5650;52.700;7.306;2023-07-30T11:39:37;21.30;99.90
11188;DHT22;5650;52.700;7.306;2023-07-30T11:42:11;21.40;99.90
11188;DHT22;5650;52.700;7.306;2023-07-30T11:44:44;21.50;99.90
11188;DHT22;5650;52.700;7.306;2023-07-30T11:47:21;21.80;99.90
11188;DHT22;5650;52.700;7.306;2023-07-30T11:49:55;22.00;99.90
11188;DHT22;5650;52.700;7.306;2023-07-30T11:52:23;22.00;99.90
11188;DHT22;5650;52.700;7.306;2023-07-30T11:55:02;22.00;99.90
11188;DHT22;5650;52.700;7.306;2023-07-30T11:57:34;21.90;99.90
11188;DHT22;5650;52.700;7.306;2023-07-30T12:00:06;21.90;99.90
11188;DHT22;5650;52.700;7.306;2023-07-30T12:02:38;21.80;99.90
11188;DHT22;5650;52.700;7.306;2023-07-30T12:05:16;21.80;99.90
11188;DHT22;5650;52.700;7.306;2023-07-30T12:07:47;21.70;99.90
11188;DHT22;5650;52.700;7.306;2023-07-30T12:10:20;21.70;99.90
11188;DHT22;5650;52.700;7.306;2023-07-30T12:12:53;21.60;99.90
11188;DHT22;5650;52.700;7.306;2023-07-30T12:15:35;21.60;99.90
11188;DHT22;5650;52.700;7.306;2023-07-30T12:18:09;21.60;99.90
11188;DHT22;5650;52.700;7.306;2023-07-30T12:20:36;21.70;99.90
11188;DHT22;5650;52.700;7.306;2023-07-30T12:23:03;21.70;99.90
11188;DHT22;5650;52.700;7.306;2023-07-30T12:25:35;21.70;99.90
11188;DHT22;5650;52.700;7.306;2023-07-30T12:28:02;21.70;99.90
11188;DHT22;5650;52.700;7.306;2023-07-30T12:30:33;21.80;99.90
11188;DHT22;5650;52.700;7.306;2023-07-30T12:33:04;21.80;99.90
11188;DHT22;5650;52.700;7.306;2023-07-30T12:35:32;21.80;99.90
11188;DHT22;5650;52.700;7.306;2023-07-30T12:38:02;22.00;99.90
11188;DHT22;5650;52.700;7.306;2023-07-30T12:40:34;22.10;99.90
11188;DHT22;5650;52.700;7.306;2023-07-30T12:43:02;22.20;99.90
11188;DHT22;5650;52.700;7.306;2023-07-30T12:45:31;22.30;99.90
11188;DHT22;5650;52.700;7.306;2023-07-30T12:48:05;22.50;99.90
11188;DHT22;5650;52.700;7.306;2023-07-30T12:50:42;22.70;99.90
11188;DHT22;5650;52.700;7.306;2023-07-30T12:53:10;22.90;99.90
11188;DHT22;5650;52.700;7.306;2023-07-30T12:55:38;23.00;99.90
11188;DHT22;5650;52.700;7.306;2023-07-30T12:58:06;23.00;99.90
11188;DHT22;5650;52.700;7.306;2023-07-30T13:00:45;22.90;99.90
11188;DHT22;5650;52.700;7.306;2023-07-30T13:03:12;22.80;99.90
11188;DHT22;5650;52.700;7.306;2023-07-30T13:05:39;22.70;99.90
11188;DHT22;5650;52.700;7.306;2023-07-30T13:08:06;22.60;99.90
11188;DHT22;5650;52.700;7.306;2023-07-30T13:10:38;22.50;99.90
11188;DHT22;5650;52.700;7.306;2023-07-30T13:13:05;22.30;99.90
11188;DHT22;5650;52.700;7.306;2023-07-30T13:15:41;22.10;99.90
11188;DHT22;5650;52.700;7.306;2023-07-30T13:18:09;22.10;99.90
11188;DHT22;5650;52.700;7.306;2023-07-30T13:20:45;22.00;99.90
11188;DHT22;5650;52.700;7.306;2023-07-30T13:23:20;22.10;99.90
11188;DHT22;5650;52.700;7.306;2023-07-30T13:25:49;22.30;99.90
11188;DHT22;5650;52.700;7.306;2023-07-30T13:28:22;22.40;99.90
11188;DHT22;5650;52.700;7.306;2023-07-30T13:30:55;22.60;99.90
11188;DHT22;5650;52.700;7.306;2023-07-30T13:33:22;22.70;99.90
11188;DHT22;5650;52.700;7.306;2023-07-30T13:35:50;22.80;99.90
11188;DHT22;5650;52.700;7.306;2023-07-30T13:38:17;22.70;99.90
11188;DHT22;5650;52.700;7.306;2023-07-30T13:40:46;22.70;99.90
11188;DHT22;5650;52.700;7.306;2023-07-30T13:43:15;22.60;99.90
11188;DHT22;5650;52.700;7.306;2023-07-30T13:45:46;22.40;99.90
11188;DHT22;5650;52.700;7.306;2023-07-30T13:48:18;22.30;99.90
11188;DHT22;5650;52.700;7.306;2023-07-30T13:50:49;22.20;99.90
11188;DHT22;5650;52.700;7.306;2023-07-30T13:53:19;22.10;99.90
11188;DHT22;5650;52.700;7.306;2023-07-30T13:55:46;21.80;99.90
11188;DHT22;5650;52.700;7.306;2023-07-30T13:58:18;21.50;99.90
11188;DHT22;5650;52.700;7.306;2023-07-30T14:01:01;21.30;99.90
11188;DHT22;5650;52.700;7.306;2023-07-30T14:03:28;21.20;99.90
11188;DHT22;5650;52.700;7.306;2023-07-30T14:06:04;21.10;99.90
11188;DHT22;5650;52.700;7.306;2023-07-30T14:08:34;21.20;99.90
11188;DHT22;5650;52.700;7.306;2023-07-30T14:11:04;21.30;99.90
11188;DHT22;5650;52.700;7.306;2023-07-30T14:13:33;21.40;99.90
11188;DHT22;5650;52.700;7.306;2023-07-30T14:16:10;21.50;99.90
11188;DHT22;5650;52.700;7.306;2023-07-30T14:18:37;21.70;99.90
11188;DHT22;5650;52.700;7.306;2023-07-30T14:21:12;21.80;99.90
11188;DHT22;5650;52.700;7.306;2023-07-30T14:23:42;21.80;99.90
11188;DHT22;5650;52.700;7.306;2023-07-30T14:26:12;21.90;99.90
11188;DHT22;5650;52.700;7.306;2023-07-30T14:28:43;21.90;99.90
11188;DHT22;5650;52.700;7.306;2023-07-30T14:31:13;22.00;99.90
11188;DHT22;5650;52.700;7.306;2023-07-30T14:33:50;22.10;99.90
11188;DHT22;5650;52.700;7.306;2023-07-30T14:36:20;22.10;99.90
11188;DHT22;5650;52.700;7.306;2023-07-30T14:38:47;22.10;99.90
11188;DHT22;5650;52.700;7.306;2023-07-30T14:41:21;22.00;99.90
11188;DHT22;5650;52.700;7.306;2023-07-30T14:43:50;22.00;99.90
11188;DHT22;5650;52.700;7.306;2023-07-30T14:46:29;22.10;99.90
11188;DHT22;5650;52.700;7.306;2023-07-30T14:48:56;22.20;99.90
11188;DHT22;5650;52.700;7.306;2023-07-30T14:51:23;22.10;99.90
11188;DHT22;5650;52.700;7.306;2023-07-30T14:53:55;22.00;99.90
11188;DHT22;5650;52.700;7.306;2023-07-30T14:56:23;21.90;99.90
11188;DHT22;5650;52.700;7.306;2023-07-30T14:58:54;21.80;99.90
11188;DHT22;5650;52.700;7.306;2023-07-30T15:01:30;21.80;99.90
11188;DHT22;5650;52.700;7.306;2023-07-30T15:03:57;21.80;99.90
11188;DHT22;5650;52.700;7.306;2023-07-30T15:06:25;21.60;99.90
11188;DHT22;5650;52.700;7.306;2023-07-30T15:08:53;21.50;99.90
11188;DHT22;5650;52.700;7.306;2023-07-30T15:11:20;21.30;99.90
11188;DHT22;5650;52.700;7.306;2023-07-30T15:13:50;21.00;99.90
11188;DHT22;5650;52.700;7.306;2023-07-30T15:16:18;20.80;99.90
11188;DHT22;5650;52.700;7.306;2023-07-30T15:18:48;20.70;99.90
11188;DHT22;5650;52.700;7.306;2023-07-30T15:21:37;20.60;99.90
11188;DHT22;5650;52.700;7.306;2023-07-30T15:24:07;20.50;99.90
11188;DHT22;5650;52.700;7.306;2023-07-30T15:26:34;20.60;99.90
11188;DHT22;5650;52.700;7.306;2023-07-30T15:29:01;20.70;99.90
11188;DHT22;5650;52.700;7.306;2023-07-30T15:31:33;20.80;99.90
11188;DHT22;5650;52.700;7.306;2023-07-30T15:34:00;20.90;99.90
11188;DHT22;5650;52.700;7.306;2023-07-30T15:36:32;20.90;99.90
11188;DHT22;5650;52.700;7.306;2023-07-30T15:38:59;20.90;99.90
11188;DHT22;5650;52.700;7.306;2023-07-30T15:41:26;21.00;99.90
11188;DHT22;5650;52.700;7.306;2023-07-30T15:43:57;21.00;99.90
11188;DHT22;5650;52.700;7.306;2023-07-30T15:46:40;21.10;99.90
11188;DHT22;5650;52.700;7.306;2023-07-30T15:49:13;21.10;99.90
11188;DHT22;5650;52.700;7.306;2023-07-30T15:51:43;21.10;99.90
11188;DHT22;5650;52.700;7.306;2023-07-30T15:54:17;21.10;99.90
11188;DHT22;5650;52.700;7.306;2023-07-30T15:56:50;21.10;99.90
11188;DHT22;5650;52.700;7.306;2023-07-30T15:59:24;21.00;99.90
11188;DHT22;5650;52.700;7.306;2023-07-30T16:01:53;20.80;99.90
11188;DHT22;5650;52.700;7.306;2023-07-30T16:04:22;20.70;99.90
11188;DHT22;5650;52.700;7.306;2023-07-30T16:06:54;20.70;99.90
11188;DHT22;5650;52.700;7.306;2023-07-30T16:09:29;20.70;99.90